createdAt,value
2023-01-12T00:05:42.276Z,85.83
2023-01-12T00:16:24.207Z,85.94
2023-01-12T00:26:48.220Z,86.49
2023-01-12T00:37:09.935Z,86.77
2023-01-12T00:47:31.299Z,86.56
2023-01-12T00:57:53.404Z,87.14
2023-01-12T01:08:14.740Z,89.77
2023-01-12T01:18:36.099Z,89.16
2023-01-12T01:28:57.484Z,87.66
2023-01-12T01:39:18.878Z,87.43
2023-01-12T01:49:43.422Z,87.64
2023-01-12T02:00:05.873Z,87.47
2023-01-12T02:10:27.267Z,88.42
2023-01-12T02:20:54.779Z,88.98
2023-01-12T02:31:25.371Z,89.54
2023-01-12T02:42:12.724Z,89.52
2023-01-12T02:52:34.267Z,89.63
2023-01-12T03:02:55.659Z,88.99
2023-01-12T03:13:18.068Z,88.77
2023-01-12T03:23:47.336Z,89.01
2023-01-12T03:34:09.517Z,89.31
2023-01-12T03:44:38.896Z,91.77
2023-01-12T03:55:00.567Z,92.44
2023-01-12T04:05:21.942Z,92.91
2023-01-12T04:15:43.359Z,93.86
2023-01-12T04:26:04.782Z,95.05
2023-01-12T04:36:26.203Z,94.76
2023-01-12T04:46:51.301Z,94.90
2023-01-12T04:57:12.690Z,94.38
2023-01-12T05:07:34.076Z,95.34
2023-01-12T05:17:56.317Z,95.87
2023-01-12T05:28:17.677Z,95.71
2023-01-12T05:38:39.293Z,96.59
2023-01-12T05:49:00.666Z,96.87
2023-01-12T05:59:22.039Z,96.01
2023-01-12T06:09:43.452Z,96.17
2023-01-12T06:20:05.597Z,96.57
2023-01-12T06:30:26.961Z,94.64
2023-01-12T06:40:48.384Z,95.00
2023-01-12T06:51:09.756Z,96.12
2023-01-12T07:01:31.150Z,95.16
2023-01-12T07:11:52.694Z,94.33
2023-01-12T07:22:14.042Z,95.58
2023-01-12T07:32:35.481Z,96.26
2023-01-12T07:43:04.743Z,96.51
2023-01-12T07:53:26.435Z,96.84
2023-01-12T08:03:47.857Z,96.99
2023-01-12T08:14:22.807Z,98.37
2023-01-12T08:24:47.180Z,98.39
2023-01-12T08:35:09.361Z,97.97
2023-01-12T08:45:30.717Z,97.88
2023-01-12T08:55:55.965Z,97.99
2023-01-12T09:06:17.396Z,98.51
2023-01-12T09:16:39.417Z,99.50
2023-01-12T09:27:01.332Z,99.08
2023-01-12T09:37:22.744Z,98.03
2023-01-12T09:47:51.574Z,98.48
2023-01-12T09:58:17.799Z,99.67
2023-01-12T10:08:41.378Z,98.73
2023-01-12T10:19:08.882Z,98.36
2023-01-12T10:29:31.691Z,98.29
2023-01-12T10:39:53.227Z,99.13
2023-01-12T10:50:20.906Z,98.55
2023-01-12T11:00:46.896Z,99.22
2023-01-12T11:11:15.702Z,99.65
2023-01-12T11:21:40.957Z,99.16
2023-01-12T11:32:06.357Z,97.63
2023-01-12T11:42:49.657Z,96.69
2023-01-12T11:53:20.104Z,95.88
2023-01-12T12:03:50.091Z,96.47
2023-01-12T12:14:30.494Z,95.16
2023-01-12T12:24:59.932Z,93.54
2023-01-12T12:35:28.248Z,93.02
2023-01-12T12:45:53.694Z,91.93
2023-01-12T12:56:19.841Z,91.33
2023-01-12T13:06:48.646Z,91.10
2023-01-12T13:17:19.164Z,90.81
2023-01-12T13:27:57.634Z,89.84
2023-01-12T13:38:26.208Z,90.65
2023-01-12T13:48:49.470Z,91.24
2023-01-12T13:59:18.075Z,90.80
2023-01-12T14:09:55.297Z,92.50
2023-01-12T14:20:18.456Z,93.42
2023-01-12T14:30:45.028Z,93.72
2023-01-12T14:41:27.515Z,96.47
2023-01-12T14:51:53.628Z,97.72
2023-01-12T15:02:14.997Z,98.01
2023-01-12T15:12:52.518Z,98.33
2023-01-12T15:23:34.156Z,98.03
2023-01-12T15:33:56.428Z,99.37
2023-01-12T15:44:18.912Z,100.00
2023-01-12T15:54:40.785Z,100.00
2023-01-12T16:05:03.065Z,100.00
2023-01-12T16:15:25.346Z,100.00
2023-01-12T16:25:54.677Z,100.00
2023-01-12T16:36:16.110Z,100.00
2023-01-12T16:46:37.478Z,100.00
2023-01-12T16:56:59.152Z,100.00
2023-01-12T17:07:20.605Z,100.00
2023-01-12T17:17:42.071Z,100.00
2023-01-12T17:28:03.844Z,100.00
2023-01-12T17:38:25.440Z,100.00
2023-01-12T17:48:50.223Z,100.00
2023-01-12T17:59:16.599Z,100.00
2023-01-12T18:09:38.083Z,99.26
2023-01-12T18:19:59.445Z,99.43
2023-01-12T18:30:20.963Z,98.62
2023-01-12T18:40:42.342Z,99.17
2023-01-12T18:51:22.652Z,99.11
2023-01-12T19:01:44.164Z,98.89
2023-01-12T19:12:06.548Z,98.78
2023-01-12T19:22:46.504Z,99.35
2023-01-12T19:33:14.533Z,98.66
2023-01-12T19:43:37.808Z,97.74
2023-01-12T19:53:59.215Z,97.21
2023-01-12T20:04:20.621Z,97.25
2023-01-12T20:14:42.317Z,97.89
2023-01-12T20:25:04.845Z,99.45
2023-01-12T20:35:27.242Z,99.14
2023-01-12T20:45:49.361Z,99.55
2023-01-12T20:56:11.010Z,98.24
2023-01-12T21:06:32.718Z,98.51
2023-01-12T21:16:54.360Z,97.86
2023-01-12T21:27:15.712Z,97.41
2023-01-12T21:37:37.595Z,97.19
2023-01-12T21:47:58.970Z,97.50
2023-01-12T21:58:20.413Z,96.16
2023-01-12T22:08:42.495Z,95.79
2023-01-12T22:19:03.861Z,95.89
2023-01-12T22:29:25.237Z,96.74
2023-01-12T22:39:46.609Z,96.14
2023-01-12T22:50:08.682Z,97.40
2023-01-12T23:00:30.149Z,91.59
2023-01-12T23:10:51.674Z,91.82
2023-01-12T23:21:15.416Z,90.84
2023-01-12T23:31:36.924Z,91.14
2023-01-12T23:41:58.372Z,90.07
2023-01-12T23:52:19.779Z,89.83
